Time;durP1;ratioP1;P1;durP2;ratioP2;P2;SDS_P1;SDS_P2;PMS_P1;PMS_P2;Temp;Humidity;BMP_temperature;BMP_pressure;BME280_temperature;BME280_humidity;BME280_pressure;Samples;Min_cycle;Max_cycle;Signal;HPM_P1;HPM_P2
2021/04/07 00:03:58;;;;;;;5.18;1.10;;;;;;;0.64;100.00;101558.91;10555120;28;20076;-78
2021/04/07 00:09:00;;;;;;;7.30;2.00;;;;;;;0.52;100.00;101529.16;10567556;28;20064;-79
2021/04/07 00:14:03;;;;;;;4.57;1.10;;;;;;;0.75;100.00;101571.09;10550084;28;20042;-77
2021/04/07 00:19:07;;;;;;;9.68;1.38;;;;;;;0.73;100.00;101545.81;10548839;28;20286;-78
2021/04/07 00:24:08;;;;;;;7.13;1.30;;;;;;;0.31;100.00;101481.41;10546540;28;20047;-78
2021/04/07 00:29:08;;;;;;;5.50;1.30;;;;;;;0.87;100.00;101557.44;10537983;28;20404;-78
2021/04/07 00:34:11;;;;;;;7.60;1.58;;;;;;;0.43;100.00;101493.56;10554105;28;20529;-78
2021/04/07 00:39:12;;;;;;;14.30;2.40;;;;;;;1.07;100.00;101548.53;10560767;28;20036;-78
2021/04/07 00:44:12;;;;;;;14.90;1.98;;;;;;;0.73;100.00;101482.75;10524097;28;20028;-78
2021/04/07 00:49:12;;;;;;;10.52;1.75;;;;;;;0.81;100.00;101484.81;10545990;28;21494;-77
2021/04/07 00:54:13;;;;;;;12.07;2.13;;;;;;;1.09;100.00;101503.78;10567903;28;20048;-77
2021/04/07 00:59:14;;;;;;;18.42;1.98;;;;;;;1.47;100.00;101538.63;10562386;28;20044;-77
2021/04/07 01:04:15;;;;;;;9.10;1.88;;;;;;;1.53;100.00;101542.84;10542104;28;20028;-77
2021/04/07 01:09:15;;;;;;;10.45;2.05;;;;;;;1.81;100.00;101569.75;10541763;28;20043;-78
2021/04/07 01:14:16;;;;;;;13.48;2.30;;;;;;;1.82;100.00;101572.13;10560407;28;20131;-78
2021/04/07 01:19:18;;;;;;;13.70;2.25;;;;;;;1.82;100.00;101596.13;10553250;27;20119;-77
2021/04/07 01:24:21;;;;;;;14.73;1.73;;;;;;;1.49;100.00;101557.78;10544855;28;20047;-77
2021/04/07 01:29:21;;;;;;;8.25;2.15;;;;;;;1.25;100.00;101547.84;10563735;28;20360;-77
2021/04/07 01:34:26;;;;;;;10.32;1.98;;;;;;;1.32;100.00;101584.00;10524718;27;20062;-78
2021/04/07 01:39:29;;;;;;;14.40;2.20;;;;;;;1.31;100.00;101593.09;10518214;28;20416;-76
2021/04/07 01:44:29;;;;;;;;;;;;;;;1.29;100.00;101581.91;10542755;28;20042;-76
2021/04/07 01:49:31;;;;;;;13.05;1.70;;;;;;;1.27;100.00;101591.00;10553751;28;19941;-79
2021/04/07 01:54:33;;;;;;;18.15;2.00;;;;;;;0.90;100.00;101524.94;10552163;28;20108;-77
2021/04/07 01:59:34;;;;;;;10.88;2.20;;;;;;;1.05;100.00;101500.06;10542114;28;20122;-77
2021/04/07 02:04:34;;;;;;;12.63;2.20;;;;;;;1.02;100.00;101495.31;10548582;28;20040;-78
2021/04/07 02:09:35;;;;;;;19.77;4.10;;;;;;;1.43;100.00;101532.25;10532678;28;20032;-78
2021/04/07 02:14:36;;;;;;;25.85;3.50;;;;;;;1.27;100.00;101481.78;10530966;28;20110;-78
2021/04/07 02:19:36;;;;;;;30.95;4.57;;;;;;;1.77;100.00;101550.06;10540527;28;20048;-78
2021/04/07 02:24:38;;;;;;;21.15;3.15;;;;;;;1.98;100.00;101548.78;10558334;28;20059;-78
2021/04/07 02:29:44;;;;;;;21.83;2.95;;;;;;;1.75;100.00;101512.25;10558042;28;20601;-78
2021/04/07 02:34:44;;;;;;;23.10;3.30;;;;;;;2.22;100.00;101564.00;10542558;28;20032;-78
2021/04/07 02:39:46;;;;;;;20.70;3.35;;;;;;;2.01;100.00;101494.88;10560213;28;20058;-78
2021/04/07 02:44:47;;;;;;;20.58;2.63;;;;;;;2.17;100.00;101514.16;10551188;28;20047;-77
2021/04/07 02:49:47;;;;;;;17.60;3.15;;;;;;;2.46;100.00;101554.06;10556076;28;20043;-77
2021/04/07 02:54:47;;;;;;;15.60;2.78;;;;;;;2.44;100.00;101550.09;10560475;28;20028;-78
2021/04/07 02:59:49;;;;;;;15.35;3.08;;;;;;;2.32;100.00;101542.50;10556434;28;20407;-78
2021/04/07 03:04:50;;;;;;;17.93;2.53;;;;;;;2.42;100.00;101561.09;10535495;28;20036;-78
2021/04/07 03:09:50;;;;;;;17.92;4.38;;;;;;;2.18;97.99;101520.28;10554954;28;20036;-76
2021/04/07 03:14:51;;;;;;;17.92;2.88;;;;;;;2.46;97.38;101578.09;10556830;28;20031;-78
2021/04/07 03:19:51;;;;;;;12.52;2.63;;;;;;;2.44;95.68;101553.56;10560176;28;20040;-79
2021/04/07 03:24:52;;;;;;;18.50;2.75;;;;;;;2.34;95.99;101529.69;10539796;28;20488;-79
2021/04/07 03:29:53;;;;;;;15.63;2.97;;;;;;;2.19;95.46;101527.19;10548928;28;20401;-79
2021/04/07 03:34:53;;;;;;;16.48;3.13;;;;;;;2.54;92.02;101569.47;10549796;28;20036;-79
2021/04/07 03:39:54;;;;;;;18.85;2.45;;;;;;;2.41;91.89;101551.47;10552451;28;20402;-79
2021/04/07 03:44:54;;;;;;;12.15;2.40;;;;;;;2.32;89.09;101521.97;10556940;28;20043;-78
2021/04/07 03:49:55;;;;;;;20.95;2.40;;;;;;;2.38;87.41;101530.72;10558215;28;20051;-78
2021/04/07 03:54:57;;;;;;;12.20;3.28;;;;;;;2.60;88.15;101566.72;10561744;28;20054;-78
2021/04/07 03:59:58;;;;;;;16.50;2.88;;;;;;;2.39;94.19;101596.31;10564637;28;20506;-79
2021/04/07 04:04:58;;;;;;;17.48;4.57;;;;;;;2.24;97.55;101586.63;10565563;28;20028;-79
2021/04/07 04:09:59;;;;;;;14.18;2.70;;;;;;;2.16;98.56;101586.44;10565946;27;20109;-78
2021/04/07 04:14:59;;;;;;;21.30;5.35;;;;;;;1.98;100.00;101602.13;10561240;28;20554;-78
2021/04/07 04:19:59;;;;;;;16.73;3.28;;;;;;;1.49;100.00;101552.47;10532847;28;20051;-78
2021/04/07 04:25:00;;;;;;;19.42;3.40;;;;;;;1.47;100.00;101551.94;10544458;27;20043;-78
2021/04/07 04:30:06;;;;;;;15.73;2.45;;;;;;;1.48;100.00;101593.47;10564127;28;20381;-77
2021/04/07 04:35:08;;;;;;;18.27;2.72;;;;;;;1.41;100.00;101598.34;10559916;28;20491;-76
2021/04/07 04:40:10;;;;;;;16.20;2.47;;;;;;;0.90;100.00;101548.13;10556850;27;20440;-79
2021/04/07 04:45:13;;;;;;;13.30;2.40;;;;;;;0.70;100.00;101509.88;10524797;28;20059;-83
2021/04/07 04:50:13;;;;;;;15.07;2.45;;;;;;;1.13;100.00;101587.38;10545265;28;20503;-78
2021/04/07 04:55:14;;;;;;;20.00;3.70;;;;;;;1.15;100.00;101595.84;10538175;28;20055;-82
2021/04/07 05:00:15;;;;;;;16.73;2.53;;;;;;;1.17;100.00;101598.25;10534032;28;20084;-80
2021/04/07 05:05:15;;;;;;;11.60;2.45;;;;;;;0.74;100.00;101510.94;10539149;28;20042;-77
2021/04/07 05:10:16;;;;;;;15.15;3.30;;;;;;;1.29;100.00;101600.56;10550075;28;20036;-79
2021/04/07 05:15:16;;;;;;;27.42;3.00;;;;;;;1.31;100.00;101587.75;10544309;28;20410;-78
2021/04/07 05:20:17;;;;;;;21.55;4.63;;;;;;;1.36;100.00;101590.38;10547039;28;20135;-77
2021/04/07 05:25:17;;;;;;;9.60;2.80;;;;;;;1.26;100.00;101565.41;10528881;27;20123;-76
2021/04/07 05:30:18;;;;;;;12.40;2.08;;;;;;;1.01;100.00;101530.97;10503471;28;20046;-80
2021/04/07 05:35:19;;;;;;;12.48;1.92;;;;;;;1.50;100.00;101591.34;10524579;28;20119;-80
2021/04/07 05:40:20;;;;;;;12.02;2.35;;;;;;;1.56;100.00;101600.88;10532629;28;20134;-80
2021/04/07 05:45:20;;;;;;;18.15;2.47;;;;;;;1.33;100.00;101537.69;10538481;28;20049;-80
2021/04/07 05:50:23;;;;;;;12.20;3.63;;;;;;;1.72;100.00;101592.75;10516941;28;20135;-80
2021/04/07 05:55:26;;;;;;;13.85;3.08;;;;;;;1.67;100.00;101575.75;10536046;28;20024;-81
2021/04/07 06:00:27;;;;;;;19.95;4.50;;;;;;;2.15;100.00;101596.34;10528203;28;20031;-81
2021/04/07 06:05:28;;;;;;;18.50;3.78;;;;;;;1.99;100.00;101561.03;10549351;28;20027;-80
2021/04/07 06:10:30;;;;;;;19.98;3.75;;;;;;;2.49;100.00;101628.25;10519598;28;20101;-81
2021/04/07 06:15:31;;;;;;;27.30;4.45;;;;;;;2.51;100.00;101618.06;10562340;28;20032;-82
2021/04/07 06:20:36;;;;;;;24.85;6.68;;;;;;;2.63;100.00;101624.88;10561367;28;20055;-81
2021/04/07 06:25:38;;;;;;;27.50;4.07;;;;;;;2.71;100.00;101634.94;10558508;28;20106;-81
2021/04/07 06:35:45;;;;;;;27.80;4.63;;;;;;;2.01;100.00;101521.53;10538213;28;20115;-80
2021/04/07 06:40:46;;;;;;;28.42;5.00;;;;;;;2.87;100.00;101649.69;10539447;28;20111;-81
2021/04/07 06:45:50;;;;;;;24.95;3.97;;;;;;;2.31;100.00;101583.63;10549492;28;20081;-80
2021/04/07 06:50:52;;;;;;;22.50;3.63;;;;;;;2.69;100.00;101605.06;10518960;28;20046;-81
2021/04/07 06:55:53;;;;;;;30.15;4.38;;;;;;;3.05;100.00;101655.31;10530032;28;20039;-80
2021/04/07 07:00:54;;;;;;;27.75;6.63;;;;;;;3.20;100.00;101652.44;10540470;28;20147;-80
2021/04/07 07:05:54;;;;;;;21.35;4.32;;;;;;;3.35;100.00;101676.25;10545250;28;20128;-79
2021/04/07 07:10:57;;;;;;;26.30;4.57;;;;;;;3.27;100.00;101652.06;10550286;28;20036;-80
2021/04/07 07:15:58;;;;;;;17.42;4.47;;;;;;;3.20;100.00;101656.97;10557689;28;20032;-80
2021/04/07 07:20:59;;;;;;;32.15;5.38;;;;;;;2.66;100.00;101584.28;10519691;28;20414;-80
2021/04/07 07:26:08;;;;;;;31.13;6.10;;;;;;;3.09;100.00;101656.34;10563213;28;20040;-80
2021/04/07 07:31:30;;;;;;;23.15;3.72;;;;;;;3.47;100.00;101710.56;10537122;28;20040;-80
2021/04/07 07:36:34;;;;;;;32.20;4.40;;;;;;;3.48;100.00;101706.00;10521692;28;20419;-80
2021/04/07 07:41:35;;;;;;;22.40;4.10;;;;;;;3.54;100.00;101720.91;10529262;27;20024;-80
2021/04/07 07:46:37;;;;;;;31.67;4.97;;;;;;;3.30;100.00;101668.31;10515343;28;20031;-80
2021/04/07 07:51:44;;;;;;;33.73;4.57;;;;;;;3.58;100.00;101705.88;10542455;28;20043;-80
2021/04/07 07:56:47;;;;;;;33.45;6.40;;;;;;;3.29;100.00;101677.44;10534742;28;20610;-81
2021/04/07 08:01:48;;;;;;;24.80;5.00;;;;;;;2.87;100.00;101612.28;10499663;28;20468;-80
2021/04/07 08:06:48;;;;;;;27.17;4.18;;;;;;;3.42;100.00;101707.19;10552995;28;20039;-80
2021/04/07 08:11:49;;;;;;;38.97;5.35;;;;;;;3.57;100.00;101737.19;10519206;28;20032;-80
2021/04/07 08:16:49;;;;;;;37.85;5.00;;;;;;;3.93;100.00;101758.03;10508760;28;20047;-80
2021/04/07 08:21:53;;;;;;;29.20;5.80;;;;;;;4.01;100.00;101724.47;10520453;28;20101;-79
2021/04/07 08:26:54;;;;;;;28.60;4.63;;;;;;;4.28;100.00;101749.72;10543654;28;20537;-80
2021/04/07 08:31:54;;;;;;;22.45;4.32;;;;;;;4.15;100.00;101746.72;10554584;28;20160;-80
2021/04/07 08:36:55;;;;;;;22.50;4.43;;;;;;;4.37;100.00;101780.06;10533772;28;20054;-81
2021/04/07 08:42:25;;;;;;;30.10;5.13;;;;;;;4.46;99.50;101778.31;10534903;28;20047;-80
2021/04/07 08:48:29;;;;;;;24.88;5.85;;;;;;;4.45;99.57;101766.03;10527095;28;20066;-81
2021/04/07 08:54:26;;;;;;;30.13;5.75;;;;;;;5.29;96.03;101773.78;10495056;28;20044;-79
2021/04/07 09:00:06;;;;;;;;;;;;;;;;;;;;;
2021/04/07 09:05:10;;;;;;;30.58;5.20;;;;;;;5.09;95.02;101764.25;10533088;28;20048;-81
2021/04/07 09:15:49;;;;;;;32.20;4.57;;;;;;;5.44;94.71;101842.38;10533561;28;20035;-81
2021/04/07 09:20:53;;;;;;;31.42;5.65;;;;;;;5.44;95.13;101850.44;10552718;28;20296;-80
2021/04/07 09:25:59;;;;;;;37.30;5.20;;;;;;;5.48;93.43;101829.97;10552769;28;20067;-80
2021/04/07 09:31:08;;;;;;;33.20;4.85;;;;;;;5.58;93.62;101865.72;10531165;28;20081;-81
2021/04/07 09:36:09;;;;;;;28.95;4.28;;;;;;;5.09;97.02;101815.19;10542667;27;20044;-80
2021/04/07 09:41:12;;;;;;;25.27;4.28;;;;;;;5.24;95.00;101829.38;10540628;27;20035;-79
2021/04/07 09:46:13;;;;;;;23.25;4.25;;;;;;;5.53;94.11;101889.94;10551212;28;20051;-80
2021/04/07 09:51:31;;;;;;;23.15;4.05;;;;;;;6.16;88.03;101902.59;10539436;28;20123;-80
2021/04/07 09:56:43;;;;;;;23.10;4.25;;;;;;;5.93;89.01;101910.59;10552415;28;20069;-79
2021/04/07 10:01:46;;;;;;;25.23;3.70;;;;;;;5.58;90.02;101914.00;10543816;28;20036;-80
2021/04/07 10:06:46;;;;;;;39.25;5.28;;;;;;;5.20;88.60;101872.09;10549530;28;20044;-79
2021/04/07 10:11:47;;;;;;;23.67;3.95;;;;;;;5.29;87.52;101866.81;10556927;28;20449;-80
2021/04/07 10:16:47;;;;;;;29.05;4.82;;;;;;;5.58;88.33;101919.38;10545219;28;20054;-79
2021/04/07 10:21:57;;;;;;;22.55;3.70;;;;;;;5.08;87.65;101831.59;10532429;28;20059;-79
2021/04/07 10:26:58;;;;;;;25.98;5.18;;;;;;;5.30;89.24;101897.91;10511778;28;20074;-80
2021/04/07 10:31:58;;;;;;;23.95;3.85;;;;;;;5.42;88.82;101916.97;10477190;28;20036;-79
2021/04/07 10:37:02;;;;;;;25.80;4.57;;;;;;;5.45;89.33;101927.09;10494335;28;20051;-79
2021/04/07 10:42:04;;;;;;;20.50;4.20;;;;;;;5.54;88.08;101934.47;10484169;28;20036;-80
2021/04/07 10:47:15;;;;;;;33.47;4.60;;;;;;;5.47;89.08;101919.56;10475615;28;20036;-81
2021/04/07 10:52:29;;;;;;;27.35;4.85;;;;;;;5.81;89.27;101950.56;10453149;28;20097;-81
2021/04/07 10:57:38;;;;;;;26.80;5.60;;;;;;;5.37;86.73;101895.63;10494102;28;20082;-80
2021/04/07 11:02:43;;;;;;;26.15;4.43;;;;;;;5.60;85.96;101917.19;10519538;28;20035;-81
2021/04/07 11:07:44;;;;;;;20.00;3.17;;;;;;;5.99;85.30;101929.28;10518296;28;20055;-80
2021/04/07 11:12:45;;;;;;;24.15;4.60;;;;;;;5.79;82.61;101915.19;10481702;28;20035;-79
2021/04/07 11:17:53;;;;;;;22.00;3.78;;;;;;;5.95;82.28;101912.19;10495241;28;20043;-77
2021/04/07 11:22:54;;;;;;;21.95;3.45;;;;;;;6.37;81.87;101955.84;10516240;28;20404;-77
2021/04/07 11:27:57;;;;;;;23.42;4.20;;;;;;;6.73;82.10;101953.94;10507557;28;20056;-77
2021/04/07 11:33:01;;;;;;;18.98;3.42;;;;;;;6.61;78.40;101945.66;10471768;28;20181;-78
2021/04/07 11:38:04;;;;;;;24.88;3.92;;;;;;;5.89;78.84;101920.34;10503105;28;20032;-78
2021/04/07 11:43:26;;;;;;;24.42;4.82;;;;;;;6.16;78.48;101971.63;10506162;28;20054;-77
2021/04/07 11:48:27;;;;;;;21.67;3.43;;;;;;;6.16;78.88;101972.41;10475480;28;20756;-77
2021/04/07 11:53:27;;;;;;;17.10;4.05;;;;;;;5.82;79.95;101919.94;10493770;28;20059;-77
2021/04/07 11:58:28;;;;;;;24.80;3.80;;;;;;;6.27;80.66;101946.94;10500168;28;20043;-77
2021/04/07 12:03:28;;;;;;;23.23;4.10;;;;;;;6.37;79.65;101982.72;10483333;28;20400;-77
2021/04/07 12:08:29;;;;;;;25.40;4.20;;;;;;;6.71;78.52;101961.50;10484167;28;20154;-77
2021/04/07 12:13:30;;;;;;;20.33;3.88;;;;;;;6.77;75.53;102014.06;10519090;28;20047;-78
2021/04/07 12:18:30;;;;;;;10.15;2.88;;;;;;;6.46;75.91;102013.13;10501898;28;20032;-79
2021/04/07 12:23:31;;;;;;;12.55;3.28;;;;;;;5.77;74.50;101912.00;10520259;28;20052;-78
2021/04/07 12:28:34;;;;;;;19.15;3.63;;;;;;;6.78;73.82;101999.50;10522726;28;20110;-77
2021/04/07 12:33:34;;;;;;;25.50;3.15;;;;;;;7.17;70.94;102033.00;10485794;28;20028;-79
2021/04/07 12:38:36;;;;;;;17.52;3.25;;;;;;;7.33;70.16;101986.88;10491635;28;20090;-80
2021/04/07 12:43:36;;;;;;;23.65;3.70;;;;;;;7.46;68.23;102050.56;10505965;28;20418;-78
2021/04/07 12:48:37;;;;;;;11.63;2.60;;;;;;;7.48;67.17;102016.09;10490329;28;20036;-77
2021/04/07 12:53:37;;;;;;;23.38;3.90;;;;;;;7.34;66.18;102010.00;10489677;28;20481;-76
2021/04/07 12:58:38;;;;;;;14.73;3.67;;;;;;;7.63;65.38;102061.44;10502303;28;20043;-78
2021/04/07 13:03:39;;;;;;;14.45;2.97;;;;;;;7.42;64.47;102068.44;10486469;28;20500;-82
2021/04/07 13:08:40;;;;;;;16.15;2.95;;;;;;;7.35;66.56;102017.75;10505869;28;20036;-84
2021/04/07 13:13:41;;;;;;;10.93;2.88;;;;;;;7.24;64.64;102064.03;10503435;28;20404;-85
2021/04/07 13:18:41;;;;;;;13.15;3.08;;;;;;;6.82;67.30;102047.25;10495125;28;20117;-86
2021/04/07 13:23:42;;;;;;;11.07;2.78;;;;;;;6.58;67.16;102042.94;10556116;28;20046;-83
2021/04/07 13:28:43;;;;;;;21.10;3.30;;;;;;;6.33;66.49;102031.66;10547024;28;20054;-84
2021/04/07 13:33:50;;;;;;;18.00;2.83;;;;;;;6.74;65.09;102084.50;10526142;28;20036;-79
2021/04/07 13:39:02;;;;;;;17.25;2.85;;;;;;;6.67;65.25;102030.38;10543512;28;20464;-78
2021/04/07 13:44:03;;;;;;;11.38;2.70;;;;;;;6.98;63.71;102104.97;10506661;28;20051;-78
2021/04/07 13:49:04;;;;;;;11.48;2.55;;;;;;;6.54;64.95;102076.91;10537339;28;20035;-78
2021/04/07 13:54:05;;;;;;;12.18;2.60;;;;;;;6.86;62.69;102069.75;10520239;28;20693;-90
2021/04/07 13:59:07;;;;;;;13.20;2.85;;;;;;;7.32;61.58;102087.53;10554241;28;20123;-86
2021/04/07 14:04:07;;;;;;;15.30;2.30;;;;;;;7.26;60.17;102072.59;10539863;28;20040;-75
2021/04/07 14:09:08;;;;;;;9.18;2.40;;;;;;;7.25;61.52;102044.13;10517787;28;20035;-76
2021/04/07 14:14:08;;;;;;;12.40;2.28;;;;;;;7.31;59.73;102069.78;10525543;28;20039;-76
2021/04/07 14:19:09;;;;;;;14.55;3.15;;;;;;;7.57;59.81;102057.28;10554890;27;20035;-77
2021/04/07 14:24:09;;;;;;;10.50;2.25;;;;;;;7.65;57.43;102100.72;10550889;28;20104;-78
2021/04/07 14:29:10;;;;;;;12.45;2.72;;;;;;;7.43;58.23;102050.38;10549814;28;20578;-76
2021/04/07 14:34:11;;;;;;;12.90;2.58;;;;;;;7.86;55.42;102095.59;10533516;28;20066;-77
2021/04/07 14:39:11;;;;;;;12.23;2.65;;;;;;;7.88;56.68;102082.59;10553113;28;20028;-80
2021/04/07 14:44:12;;;;;;;18.98;3.00;;;;;;;8.24;53.89;102107.47;10521132;28;20031;-78
2021/04/07 14:49:13;;;;;;;11.25;2.42;;;;;;;8.34;52.65;102109.06;10511695;28;20127;-83
2021/04/07 14:54:20;;;;;;;9.05;2.42;;;;;;;8.08;49.60;102054.34;10530510;28;20046;-77
2021/04/07 14:59:21;;;;;;;13.27;2.58;;;;;;;8.36;52.26;102104.16;10515177;28;20016;-75
2021/04/07 15:04:21;;;;;;;9.43;2.40;;;;;;;7.49;52.67;101980.00;10550507;28;20391;-79
2021/04/07 15:09:22;;;;;;;9.18;2.30;;;;;;;8.43;49.26;102109.13;10544574;28;20510;-77
2021/04/07 15:14:25;;;;;;;13.40;2.70;;;;;;;8.03;52.83;102104.53;10534106;28;20100;-76
2021/04/07 15:19:25;;;;;;;;;;;;;;;8.15;52.47;102140.84;10515856;28;20044;-77
2021/04/07 15:24:26;;;;;;;11.35;2.75;;;;;;;7.14;52.40;102033.59;10535938;28;20337;-77
2021/04/07 15:29:27;;;;;;;12.25;2.30;;;;;;;7.61;51.58;102128.22;10543946;28;20062;-79
2021/04/07 15:34:27;;;;;;;11.40;1.98;;;;;;;8.04;50.26;102076.50;10539553;28;20034;-77
2021/04/07 15:39:30;;;;;;;13.40;2.35;;;;;;;7.94;47.87;102090.22;10534910;28;20225;-78
2021/04/07 15:44:31;;;;;;;10.10;2.50;;;;;;;7.90;48.03;102108.13;10542268;28;20157;-79
2021/04/07 15:49:31;;;;;;;6.53;1.77;;;;;;;7.82;48.11;102073.88;10528823;28;20036;-79
2021/04/07 15:54:31;;;;;;;11.70;1.83;;;;;;;7.63;46.71;102131.41;10553140;28;20874;-79
2021/04/07 15:59:32;;;;;;;12.88;2.10;;;;;;;7.13;47.35;102128.81;10560396;28;20063;-81
2021/04/07 16:04:40;;;;;;;9.73;1.90;;;;;;;6.91;49.95;102093.81;10559751;28;20048;-77
2021/04/07 16:09:42;;;;;;;9.18;1.52;;;;;;;6.61;49.34;102042.38;10540714;28;20031;-76
2021/04/07 16:14:42;;;;;;;8.73;2.03;;;;;;;7.16;48.93;102079.81;10549511;28;20032;-78
2021/04/07 16:19:47;;;;;;;8.57;2.30;;;;;;;7.63;48.69;102147.53;10538680;28;20067;-77
2021/04/07 16:24:47;;;;;;;10.88;2.20;;;;;;;7.25;48.15;102108.66;10532132;28;20067;-75
2021/04/07 16:29:48;;;;;;;9.93;2.20;;;;;;;7.19;48.96;102165.25;10553015;28;20035;-78
2021/04/07 16:34:48;;;;;;;8.38;2.30;;;;;;;6.35;50.27;102072.44;10545197;28;20043;-75
2021/04/07 16:39:49;;;;;;;14.73;2.40;;;;;;;6.29;52.11;102108.53;10558366;28;20043;-78
2021/04/07 16:44:49;;;;;;;12.90;1.77;;;;;;;6.32;52.68;102148.22;10538495;28;20532;-78
2021/04/07 16:49:50;;;;;;;12.88;2.10;;;;;;;6.40;51.26;102148.63;10554183;27;20044;-76
2021/04/07 16:54:50;;;;;;;10.85;2.40;;;;;;;5.90;50.74;102093.69;10563024;28;20054;-78
2021/04/07 16:59:51;;;;;;;7.88;1.48;;;;;;;6.05;49.93;102134.78;10558556;28;20554;-78
2021/04/07 17:04:51;;;;;;;8.93;2.25;;;;;;;6.00;51.65;102145.63;10546340;28;21028;-77
2021/04/07 17:09:54;;;;;;;13.18;2.10;;;;;;;5.85;53.58;102152.00;10516329;28;20047;-76
2021/04/07 17:14:54;;;;;;;12.38;2.05;;;;;;;5.91;53.62;102165.06;10562836;28;20019;-79
2021/04/07 17:19:55;;;;;;;8.20;1.63;;;;;;;5.70;54.28;102158.44;10546440;28;20122;-80
2021/04/07 17:24:55;;;;;;;7.38;1.55;;;;;;;5.63;55.28;102158.00;10515901;28;20036;-77
2021/04/07 17:29:56;;;;;;;7.60;1.95;;;;;;;5.27;55.59;102118.34;10542563;28;20040;-78
2021/04/07 17:34:56;;;;;;;7.38;1.70;;;;;;;4.82;55.97;102064.31;10522945;28;20039;-79
2021/04/07 17:39:57;;;;;;;7.97;1.55;;;;;;;5.37;56.73;102161.09;10520106;28;20160;-79
2021/04/07 17:44:59;;;;;;;13.77;2.00;;;;;;;5.42;58.36;102163.69;10548458;28;20388;-78
2021/04/07 17:49:59;;;;;;;6.93;1.70;;;;;;;5.38;59.90;102173.41;10555889;28;20039;-75
2021/04/07 17:55:01;;;;;;;14.85;3.30;;;;;;;5.12;59.76;102153.41;10546815;28;20038;-78
2021/04/07 18:00:02;;;;;;;13.98;1.83;;;;;;;4.63;59.37;102116.00;10497428;28;20083;-79
2021/04/07 18:05:07;;;;;;;15.93;2.45;;;;;;;4.80;59.89;102152.25;10542836;28;20066;-78
2021/04/07 18:10:08;;;;;;;9.00;2.13;;;;;;;5.02;60.51;102181.94;10561206;28;20074;-80
2021/04/07 18:15:10;;;;;;;11.90;2.85;;;;;;;4.73;62.21;102157.16;10518522;28;20027;-81
2021/04/07 18:20:12;;;;;;;7.38;1.80;;;;;;;4.44;62.80;102133.91;10542058;28;20332;-79
2021/04/07 18:25:13;;;;;;;9.80;1.90;;;;;;;4.83;64.19;102194.53;10521708;28;20396;-78
2021/04/07 18:30:15;;;;;;;12.82;3.38;;;;;;;4.71;66.25;102202.16;10530156;28;20040;-77
2021/04/07 18:35:16;;;;;;;9.73;2.42;;;;;;;4.26;67.76;102131.94;10506608;28;20490;-81
2021/04/07 18:40:17;;;;;;;11.10;2.42;;;;;;;4.32;68.74;102141.53;10522531;28;20032;-79
2021/04/07 18:45:18;;;;;;;15.50;3.23;;;;;;;4.54;69.22;102192.72;10553099;28;20046;-78
2021/04/07 18:50:20;;;;;;;14.95;2.30;;;;;;;4.20;69.99;102147.28;10516303;28;20039;-79
2021/04/07 18:55:21;;;;;;;9.30;1.87;;;;;;;4.62;70.74;102216.19;10536232;28;20070;-79
2021/04/07 19:00:23;;;;;;;13.23;2.22;;;;;;;3.80;71.51;102088.53;10514010;28;20380;-78
2021/04/07 19:05:24;;;;;;;13.53;2.10;;;;;;;3.75;72.14;102117.22;10539786;28;20233;-80
2021/04/07 19:10:25;;;;;;;13.80;2.33;;;;;;;4.04;72.30;102149.31;10535067;28;20043;-79
2021/04/07 19:15:25;;;;;;;8.38;1.95;;;;;;;4.45;71.74;102221.19;10544438;28;20036;-79
2021/04/07 19:20:26;;;;;;;14.73;2.45;;;;;;;4.42;72.54;102216.38;10534498;27;20110;-78
2021/04/07 19:25:27;;;;;;;15.73;1.88;;;;;;;4.16;72.26;102202.44;10554727;28;20035;-86
2021/04/07 19:30:28;;;;;;;11.18;2.17;;;;;;;4.46;72.37;102217.41;10539781;28;20032;-77
2021/04/07 19:35:28;;;;;;;13.73;2.78;;;;;;;3.55;73.36;102096.78;10532092;28;20502;-79
2021/04/07 19:40:29;;;;;;;10.13;1.95;;;;;;;4.45;75.55;102221.19;10562716;28;20172;-79
2021/04/07 19:45:30;;;;;;;13.02;1.85;;;;;;;4.52;77.98;102224.31;10566303;28;20040;-79
2021/04/07 19:55:38;;;;;;;10.93;2.10;;;;;;;4.15;82.28;102195.50;10570071;28;20512;-80
2021/04/07 20:00:40;;;;;;;13.93;1.80;;;;;;;4.39;84.11;102254.44;10552065;28;20040;-81
2021/04/07 20:05:41;;;;;;;13.27;2.67;;;;;;;3.80;84.82;102174.13;10551658;28;20107;-79
2021/04/07 20:10:42;;;;;;;15.57;2.67;;;;;;;3.81;84.92;102181.09;10543663;28;20040;-80
2021/04/07 20:15:42;;;;;;;10.13;2.25;;;;;;;4.26;86.38;102249.72;10550552;28;20034;-79
2021/04/07 20:20:43;;;;;;;10.25;1.65;;;;;;;3.91;86.22;102206.94;10570129;28;20111;-79
2021/04/07 20:25:44;;;;;;;17.98;3.05;;;;;;;4.04;85.36;102221.56;10518826;28;20051;-79
2021/04/07 20:30:45;;;;;;;15.27;2.28;;;;;;;4.14;86.23;102253.59;10500079;28;20063;-79
2021/04/07 20:35:46;;;;;;;12.02;1.80;;;;;;;4.02;85.23;102250.47;10495064;28;20474;-80
2021/04/07 20:40:49;;;;;;;13.57;2.75;;;;;;;4.11;85.72;102264.03;10517592;28;20041;-80
2021/04/07 20:45:50;;;;;;;12.30;2.05;;;;;;;3.54;85.89;102164.72;10483221;28;20124;-80
2021/04/07 20:50:51;;;;;;;13.18;2.70;;;;;;;4.09;85.89;102256.31;10523385;28;20040;-79
2021/04/07 20:55:51;;;;;;;12.07;2.45;;;;;;;4.04;86.04;102256.34;10509330;28;20124;-80
2021/04/07 21:00:52;;;;;;;15.65;2.05;;;;;;;3.96;86.51;102240.91;10510922;28;20045;-80
2021/04/07 21:05:52;;;;;;;16.05;3.00;;;;;;;3.49;86.97;102172.78;10515834;28;20090;-79
2021/04/07 21:11:00;;;;;;;14.20;2.20;;;;;;;4.19;87.53;102283.00;10503421;28;20028;-79
2021/04/07 21:16:01;;;;;;;10.90;2.38;;;;;;;3.89;88.66;102224.38;10518269;28;20595;-78
2021/04/07 21:21:01;;;;;;;11.68;2.42;;;;;;;3.98;89.85;102254.78;10525639;28;20052;-79
2021/04/07 21:26:02;;;;;;;12.90;2.03;;;;;;;4.04;90.23;102275.06;10560202;28;20036;-78
2021/04/07 21:31:02;;;;;;;12.85;1.80;;;;;;;4.03;89.46;102262.78;10536696;28;20031;-78
2021/04/07 21:36:06;;;;;;;14.38;2.25;;;;;;;3.76;89.93;102248.00;10556277;28;20040;-78
2021/04/07 21:41:09;;;;;;;12.57;2.88;;;;;;;4.10;88.56;102279.31;10537230;28;20482;-78
2021/04/07 21:46:09;;;;;;;14.00;2.70;;;;;;;4.13;87.87;102289.44;10554112;28;20092;-78
2021/04/07 21:51:10;;;;;;;11.85;2.38;;;;;;;4.13;88.16;102289.44;10548161;28;20032;-78
2021/04/07 21:56:11;;;;;;;10.45;2.15;;;;;;;3.13;87.31;102138.25;10538252;28;20035;-78
2021/04/07 22:01:11;;;;;;;12.95;1.77;;;;;;;3.71;85.95;102242.66;10560550;28;20036;-79
2021/04/07 22:06:12;;;;;;;12.07;1.80;;;;;;;3.98;84.66;102281.56;10554159;28;20036;-78
2021/04/07 22:11:13;;;;;;;8.85;2.25;;;;;;;3.98;83.34;102302.97;10562776;28;20036;-79
2021/04/07 22:16:16;;;;;;;12.20;1.95;;;;;;;3.63;82.59;102253.16;10544797;28;20031;-79
2021/04/07 22:21:23;;;;;;;12.85;1.92;;;;;;;3.92;80.50;102304.06;10539263;28;20047;-78
2021/04/07 22:26:25;;;;;;;11.55;1.60;;;;;;;3.49;80.64;102242.28;10546442;28;20400;-78
2021/04/07 22:31:30;;;;;;;6.63;1.63;;;;;;;3.62;79.46;102257.69;10550593;28;20046;-79
2021/04/07 22:36:33;;;;;;;13.18;1.60;;;;;;;3.61;79.23;102256.09;10529230;28;20050;-79
2021/04/07 22:41:34;;;;;;;15.40;2.33;;;;;;;3.92;77.87;102293.34;10521493;28;20040;-78
2021/04/07 22:46:34;;;;;;;9.15;1.83;;;;;;;3.71;76.43;102261.38;10554328;28;20036;-78
2021/04/07 22:51:35;;;;;;;13.57;2.08;;;;;;;4.15;76.15;102330.13;10552352;28;20040;-78
2021/04/07 22:56:39;;;;;;;5.55;1.27;;;;;;;4.08;76.98;102310.09;10541306;28;20036;-77
2021/04/07 23:01:40;;;;;;;12.38;1.48;;;;;;;3.69;75.31;102246.69;10518187;28;20043;-77
2021/04/07 23:06:40;;;;;;;8.23;1.75;;;;;;;3.62;75.38;102228.28;10542036;28;20480;-77
2021/04/07 23:11:41;;;;;;;7.88;1.27;;;;;;;3.53;74.16;102227.28;10556369;28;20035;-77
2021/04/07 23:16:41;;;;;;;8.55;1.30;;;;;;;3.75;73.24;102273.13;10559258;28;20062;-78
2021/04/07 23:21:42;;;;;;;6.60;0.90;;;;;;;4.15;72.26;102330.13;10554101;28;20048;-78
2021/04/07 23:26:42;;;;;;;7.38;1.30;;;;;;;4.23;71.87;102337.56;10561867;28;20049;-77